Time;durP1;ratioP1;P1;durP2;ratioP2;P2;SDS_P1;SDS_P2;PMS_P1;PMS_P2;Temp;Humidity;BMP_temperature;BMP_pressure;BME280_temperature;BME280_humidity;BME280_pressure;Samples;Min_cycle;Max_cycle;Signal;HPM_P1;HPM_P2
2023/03/12 00:01:23;;;;;;;4.00;0.90;;;19.30;50.30;;;;;;5096143;28;20125;-64
2023/03/12 00:03:48;;;;;;;3.67;0.95;;;19.30;50.20;;;;;;5077300;28;20479;-64
2023/03/12 00:06:14;;;;;;;2.97;0.98;;;19.30;50.20;;;;;;5096048;28;20136;-64
2023/03/12 00:08:40;;;;;;;2.47;0.93;;;19.20;50.20;;;;;;5095736;28;20055;-64
2023/03/12 00:11:10;;;;;;;1.40;0.70;;;19.20;50.10;;;;;;5095364;28;20048;-64
2023/03/12 00:13:36;;;;;;;3.35;1.02;;;19.30;50.10;;;;;;5095754;28;20044;-64
2023/03/12 00:16:09;;;;;;;2.10;0.85;;;19.20;50.10;;;;;;5096141;28;20098;-64
2023/03/12 00:18:35;;;;;;;2.03;0.73;;;19.20;50.10;;;;;;5076313;28;20052;-64
2023/03/12 00:21:01;;;;;;;3.20;0.93;;;19.20;50.10;;;;;;5095594;28;20491;-64
2023/03/12 00:23:26;;;;;;;2.20;0.93;;;19.20;50.00;;;;;;5094580;28;20062;-64
2023/03/12 00:25:52;;;;;;;1.92;0.80;;;19.20;50.00;;;;;;5077805;28;20530;-64
2023/03/12 00:28:17;;;;;;;3.42;0.90;;;19.20;50.00;;;;;;5077492;28;20493;-64
2023/03/12 00:30:43;;;;;;;2.45;0.95;;;19.20;50.00;;;;;;5075662;28;20470;-64
2023/03/12 00:33:09;;;;;;;1.95;0.93;;;19.10;49.90;;;;;;5077336;28;20044;-64
2023/03/12 00:35:37;;;;;;;2.65;0.90;;;19.10;50.00;;;;;;5077003;28;20161;-63
2023/03/12 00:38:02;;;;;;;3.63;1.07;;;19.10;50.00;;;;;;5094674;28;20372;-64
2023/03/12 00:40:28;;;;;;;2.40;0.90;;;19.10;49.90;;;;;;5095284;28;20305;-64
2023/03/12 00:42:54;;;;;;;1.45;0.70;;;19.10;49.90;;;;;;5095603;28;20130;-64
2023/03/12 00:45:19;;;;;;;2.90;1.00;;;19.10;49.90;;;;;;5076443;28;20036;-64
2023/03/12 00:47:45;;;;;;;1.38;0.90;;;19.10;49.80;;;;;;5095309;28;20135;-64
2023/03/12 00:50:10;;;;;;;2.58;0.90;;;19.10;49.90;;;;;;5094525;28;20058;-64
2023/03/12 00:52:36;;;;;;;2.38;1.00;;;19.10;49.80;;;;;;5076383;28;20050;-64
2023/03/12 00:55:01;;;;;;;2.45;1.00;;;19.00;49.80;;;;;;5095335;28;20047;-64
2023/03/12 00:57:27;;;;;;;3.08;1.00;;;19.00;49.80;;;;;;5094560;28;20472;-64
2023/03/12 00:59:52;;;;;;;1.83;0.82;;;19.00;49.80;;;;;;5094662;28;20047;-64
2023/03/12 01:02:18;;;;;;;1.27;0.73;;;19.00;49.80;;;;;;5095188;28;20044;-64
2023/03/12 01:04:44;;;;;;;3.08;1.15;;;19.00;49.80;;;;;;5094197;28;20088;-64
2023/03/12 01:07:09;;;;;;;3.15;0.95;;;19.00;49.70;;;;;;5076227;28;20047;-64
2023/03/12 01:09:35;;;;;;;3.17;1.27;;;19.00;49.70;;;;;;5094668;28;20435;-64
2023/03/12 01:12:00;;;;;;;3.08;1.13;;;19.00;49.70;;;;;;5076594;28;20115;-64
2023/03/12 01:14:26;;;;;;;1.98;0.88;;;18.90;49.60;;;;;;5093815;28;20072;-65
2023/03/12 01:16:51;;;;;;;2.63;1.05;;;18.90;49.70;;;;;;5094550;28;20052;-64
2023/03/12 01:19:17;;;;;;;2.38;1.10;;;18.90;49.70;;;;;;5094849;28;20048;-64
2023/03/12 01:21:42;;;;;;;2.47;1.10;;;18.90;49.60;;;;;;5093594;28;20051;-64
2023/03/12 01:24:08;;;;;;;2.33;0.88;;;18.90;49.70;;;;;;5076555;28;20093;-64
2023/03/12 01:26:33;;;;;;;2.50;1.00;;;18.90;49.60;;;;;;5093698;28;20141;-64
2023/03/12 01:28:59;;;;;;;2.67;0.90;;;18.90;49.60;;;;;;5076125;28;20044;-64
2023/03/12 01:31:25;;;;;;;1.95;0.90;;;18.90;49.60;;;;;;5094129;28;20040;-64
2023/03/12 01:33:50;;;;;;;2.45;1.02;;;18.90;49.60;;;;;;5075401;28;20040;-64
2023/03/12 01:36:24;;;;;;;2.35;0.90;;;18.90;49.60;;;;;;5094426;28;20048;-64
2023/03/12 01:38:54;;;;;;;2.17;0.90;;;18.90;49.60;;;;;;5094553;28;20040;-64
2023/03/12 01:41:20;;;;;;;3.25;1.40;;;18.90;49.50;;;;;;5093389;28;20067;-65
2023/03/12 01:43:45;;;;;;;2.75;1.08;;;18.90;49.50;;;;;;5094085;28;20032;-64
2023/03/12 01:46:11;;;;;;;2.75;0.90;;;18.90;49.50;;;;;;5094102;28;20372;-64
2023/03/12 01:48:41;;;;;;;3.72;1.08;;;18.90;49.40;;;;;;5092848;28;20114;-64
2023/03/12 01:51:08;;;;;;;3.13;0.70;;;18.90;49.40;;;;;;5094014;28;20043;-64
2023/03/12 01:53:34;;;;;;;1.73;0.90;;;18.90;49.40;;;;;;5093989;28;20036;-65
2023/03/12 01:55:59;;;;;;;3.00;1.10;;;18.90;49.40;;;;;;5075382;28;20081;-64
2023/03/12 01:58:25;;;;;;;1.92;0.80;;;18.90;49.30;;;;;;5042146;28;20051;-64
2023/03/12 02:00:51;;;;;;;2.05;1.02;;;18.90;49.30;;;;;;5042296;28;20031;-64
2023/03/12 02:03:16;;;;;;;3.03;1.00;;;18.80;49.20;;;;;;5092838;28;20442;-64
2023/03/12 02:05:49;;;;;;;1.88;0.77;;;18.90;49.30;;;;;;5075384;28;20052;-64
2023/03/12 02:08:15;;;;;;;2.95;1.08;;;18.90;49.30;;;;;;5059629;28;20061;-64
2023/03/12 02:10:41;;;;;;;3.17;0.90;;;18.80;49.20;;;;;;5041063;28;20152;-64
2023/03/12 02:13:06;;;;;;;2.47;0.95;;;18.90;49.20;;;;;;5058911;28;20105;-64
2023/03/12 02:15:32;;;;;;;1.70;0.70;;;18.90;49.20;;;;;;5075143;28;20056;-64
2023/03/12 02:17:58;;;;;;;2.53;0.90;;;18.90;49.30;;;;;;5054554;28;20060;-64
2023/03/12 02:20:36;;;;;;;2.30;1.05;;;18.90;49.20;;;;;;5073022;28;20040;-64
2023/03/12 02:23:07;;;;;;;1.63;0.90;;;18.80;49.10;;;;;;5039225;28;20553;-64
2023/03/12 02:25:38;;;;;;;2.35;1.00;;;18.90;49.20;;;;;;5055524;28;20077;-64
2023/03/12 02:28:07;;;;;;;1.75;0.90;;;18.90;49.20;;;;;;5071754;28;20052;-64
2023/03/12 02:30:32;;;;;;;;;;;18.90;49.10;;;;;;5071016;28;20048;-64
2023/03/12 02:33:04;;;;;;;3.30;0.90;;;18.90;49.20;;;;;;5071789;28;19920;-64
2023/03/12 02:35:29;;;;;;;2.40;1.05;;;18.90;49.20;;;;;;5054995;28;20045;-65
2023/03/12 02:37:55;;;;;;;3.78;1.00;;;18.90;49.20;;;;;;5072173;28;20051;-64
2023/03/12 02:40:28;;;;;;;2.03;0.98;;;18.90;49.20;;;;;;5072707;28;20130;-64
2023/03/12 02:42:54;;;;;;;3.25;0.93;;;18.90;49.20;;;;;;5071864;28;20131;-64
2023/03/12 02:45:20;;;;;;;2.53;0.90;;;18.90;49.20;;;;;;5070908;28;20123;-64
2023/03/12 02:47:45;;;;;;;2.13;0.80;;;18.90;49.20;;;;;;5054980;28;20499;-64
2023/03/12 02:50:11;;;;;;;2.22;1.00;;;18.90;49.20;;;;;;5071465;28;20040;-64
2023/03/12 02:52:37;;;;;;;1.52;0.80;;;18.90;49.20;;;;;;5071664;28;20044;-65
2023/03/12 02:55:04;;;;;;;1.58;0.95;;;18.90;49.10;;;;;;5071669;28;20510;-64
2023/03/12 02:57:29;;;;;;;2.72;0.80;;;18.90;49.10;;;;;;5071083;28;20048;-64
2023/03/12 02:59:55;;;;;;;2.22;0.90;;;19.00;49.20;;;;;;5071923;28;20048;-64
2023/03/12 03:02:20;;;;;;;2.25;0.82;;;18.90;49.00;;;;;;5070576;28;20040;-65
2023/03/12 03:04:46;;;;;;;2.70;0.90;;;19.00;49.10;;;;;;5071826;28;20048;-65
2023/03/12 03:07:13;;;;;;;2.10;0.93;;;19.00;49.10;;;;;;5070411;28;20099;-65
2023/03/12 03:09:39;;;;;;;1.70;0.90;;;19.00;49.10;;;;;;5072102;28;20087;-65
2023/03/12 03:12:05;;;;;;;1.63;0.95;;;19.00;49.00;;;;;;5070346;28;20076;-64
2023/03/12 03:14:30;;;;;;;1.60;0.73;;;19.00;49.00;;;;;;5072462;28;20044;-64
2023/03/12 03:16:56;;;;;;;2.55;0.85;;;19.00;49.00;;;;;;5094713;28;20047;-64
2023/03/12 03:19:21;;;;;;;2.92;0.90;;;19.00;49.00;;;;;;5112064;28;20455;-64
2023/03/12 03:21:47;;;;;;;2.13;0.80;;;19.00;49.00;;;;;;5112711;28;20044;-64
2023/03/12 03:24:13;;;;;;;2.75;1.00;;;19.00;48.90;;;;;;5113240;28;20119;-64
2023/03/12 03:26:38;;;;;;;1.70;0.80;;;19.10;49.00;;;;;;5112081;28;20048;-64
2023/03/12 03:29:04;;;;;;;1.63;0.80;;;19.10;48.90;;;;;;5113210;28;20036;-64
2023/03/12 03:31:29;;;;;;;1.05;0.68;;;19.10;48.90;;;;;;5112666;28;20036;-64
2023/03/12 03:33:55;;;;;;;1.95;0.93;;;19.10;48.90;;;;;;5112124;28;20044;-64
2023/03/12 03:36:22;;;;;;;1.33;0.73;;;19.10;48.90;;;;;;5113050;28;20044;-64
2023/03/12 03:38:49;;;;;;;1.40;0.80;;;19.10;48.80;;;;;;5094320;28;20043;-64
2023/03/12 03:41:18;;;;;;;1.73;0.80;;;19.10;48.90;;;;;;5093753;28;20479;-64
2023/03/12 03:43:44;;;;;;;2.10;0.80;;;19.20;48.90;;;;;;5094352;28;20086;-65
2023/03/12 03:46:10;;;;;;;2.40;1.00;;;19.10;48.80;;;;;;5112894;28;20079;-65
2023/03/12 03:48:36;;;;;;;2.13;0.90;;;19.20;48.80;;;;;;5111530;28;20044;-65
2023/03/12 03:51:03;;;;;;;1.85;0.90;;;19.20;48.90;;;;;;5113079;28;20266;-65
2023/03/12 03:53:28;;;;;;;3.42;1.00;;;19.20;48.80;;;;;;5112439;28;20105;-65
2023/03/12 03:55:56;;;;;;;;;;;19.20;48.80;;;;;;5112173;28;20040;-66
2023/03/12 03:58:22;;;;;;;1.73;0.82;;;19.20;48.90;;;;;;5094412;28;19924;-64
2023/03/12 04:00:48;;;;;;;1.92;0.60;;;19.20;48.80;;;;;;5112568;28;20036;-64
2023/03/12 04:03:13;;;;;;;1.85;0.88;;;19.30;48.90;;;;;;5111843;28;20061;-64
2023/03/12 04:05:43;;;;;;;2.70;0.95;;;19.20;48.80;;;;;;5094097;28;20039;-64
2023/03/12 04:08:10;;;;;;;2.97;0.90;;;19.20;48.80;;;;;;5112135;28;20479;-64
2023/03/12 04:10:35;;;;;;;2.53;1.00;;;19.30;48.80;;;;;;5111482;28;20074;-64
2023/03/12 04:13:01;;;;;;;1.55;0.90;;;19.30;48.80;;;;;;5094596;28;20068;-64
2023/03/12 04:15:26;;;;;;;1.92;0.90;;;19.30;48.80;;;;;;5111381;28;20043;-65
2023/03/12 04:17:52;;;;;;;1.50;0.70;;;19.30;48.70;;;;;;5112256;28;20494;-64
2023/03/12 04:20:18;;;;;;;2.45;0.98;;;19.30;48.70;;;;;;5094086;28;20411;-65
2023/03/12 04:22:43;;;;;;;2.22;0.90;;;19.30;48.70;;;;;;5111518;28;20053;-64
2023/03/12 04:25:10;;;;;;;2.20;1.00;;;19.40;48.80;;;;;;5112107;28;20032;-64
2023/03/12 04:27:35;;;;;;;1.92;0.95;;;19.30;48.60;;;;;;5095357;28;20061;-65
2023/03/12 04:30:01;;;;;;;2.40;1.00;;;19.40;48.70;;;;;;5094357;28;20122;-65
2023/03/12 04:32:26;;;;;;;2.10;1.02;;;19.40;48.70;;;;;;5095279;28;20051;-65
2023/03/12 04:34:52;;;;;;;1.60;0.77;;;19.40;48.60;;;;;;5077359;28;20407;-65
2023/03/12 04:37:17;;;;;;;2.13;0.80;;;19.40;48.70;;;;;;5094434;28;20094;-65
2023/03/12 04:39:44;;;;;;;2.42;0.90;;;19.40;48.60;;;;;;5077202;28;20559;-64
2023/03/12 04:42:09;;;;;;;1.98;1.00;;;19.40;48.60;;;;;;5095484;28;20066;-65
2023/03/12 04:44:35;;;;;;;2.60;0.90;;;19.50;48.60;;;;;;5076034;28;20052;-65
2023/03/12 04:47:01;;;;;;;2.75;1.10;;;19.50;48.60;;;;;;5077558;28;20051;-65
2023/03/12 04:49:27;;;;;;;2.92;1.05;;;19.50;48.60;;;;;;5094621;28;20166;-65
2023/03/12 04:51:52;;;;;;;2.15;1.10;;;19.50;48.80;;;;;;5094308;28;20079;-65
2023/03/12 04:54:19;;;;;;;2.15;1.02;;;19.50;48.50;;;;;;5095179;28;20047;-65
2023/03/12 04:56:45;;;;;;;1.90;1.00;;;19.50;48.60;;;;;;5076582;28;20545;-65
2023/03/12 04:59:11;;;;;;;1.98;0.90;;;19.50;48.50;;;;;;5094257;28;20066;-64
2023/03/12 05:01:37;;;;;;;1.75;0.90;;;19.50;48.50;;;;;;5094522;28;20044;-65
2023/03/12 05:04:02;;;;;;;2.72;1.10;;;19.50;48.50;;;;;;5076136;28;20093;-64
2023/03/12 05:06:28;;;;;;;2.03;0.90;;;19.50;48.50;;;;;;5093078;28;20052;-64
2023/03/12 05:08:53;;;;;;;2.35;0.93;;;19.60;48.50;;;;;;5094655;28;20048;-64
2023/03/12 05:11:19;;;;;;;2.30;1.00;;;19.60;48.50;;;;;;5094827;28;20391;-65
2023/03/12 05:13:45;;;;;;;1.50;0.90;;;19.60;48.50;;;;;;5075687;28;20093;-65
2023/03/12 05:16:11;;;;;;;2.05;0.80;;;19.60;48.50;;;;;;5094678;28;20052;-65
2023/03/12 05:18:37;;;;;;;1.75;1.10;;;19.60;48.40;;;;;;5093930;28;20044;-64
2023/03/12 05:21:07;;;;;;;1.60;0.90;;;19.60;48.40;;;;;;5094104;28;20055;-65
2023/03/12 05:23:33;;;;;;;3.42;1.00;;;19.60;48.40;;;;;;5094487;28;20044;-64
2023/03/12 05:25:59;;;;;;;1.73;0.98;;;19.60;48.40;;;;;;5093864;28;20047;-64
2023/03/12 05:28:27;;;;;;;1.70;0.70;;;19.60;48.40;;;;;;5076012;28;20051;-64
2023/03/12 05:30:56;;;;;;;1.38;0.70;;;19.70;48.40;;;;;;5094505;28;20099;-64
2023/03/12 05:33:22;;;;;;;1.55;0.80;;;19.70;48.40;;;;;;5093559;28;20047;-64
2023/03/12 05:35:47;;;;;;;1.50;0.80;;;19.70;48.30;;;;;;5093913;28;20043;-64
2023/03/12 05:38:13;;;;;;;1.77;0.80;;;19.70;48.30;;;;;;5094239;28;20036;-64
2023/03/12 05:40:38;;;;;;;2.00;0.90;;;19.70;48.30;;;;;;5075267;28;20059;-64
2023/03/12 05:43:04;;;;;;;1.90;0.90;;;19.70;48.30;;;;;;5075940;28;20052;-64
2023/03/12 05:45:31;;;;;;;2.90;1.05;;;19.70;48.30;;;;;;5093555;28;20479;-64
2023/03/12 05:47:57;;;;;;;1.58;0.90;;;19.70;48.20;;;;;;5093372;28;20047;-64
2023/03/12 05:50:23;;;;;;;2.38;0.88;;;19.80;48.30;;;;;;5093962;28;20825;-65
2023/03/12 05:52:48;;;;;;;2.03;1.08;;;19.70;48.20;;;;;;5094101;28;20036;-65
2023/03/12 05:55:14;;;;;;;3.33;1.27;;;19.70;48.20;;;;;;5093365;28;20506;-64
2023/03/12 05:57:39;;;;;;;1.98;0.80;;;19.70;48.20;;;;;;5075441;28;20112;-64
2023/03/12 06:00:05;;;;;;;2.25;0.90;;;19.70;48.20;;;;;;5094107;28;20046;-64
2023/03/12 06:02:31;;;;;;;2.65;1.10;;;19.80;48.20;;;;;;5092554;28;20079;-64
2023/03/12 06:04:57;;;;;;;2.72;0.82;;;19.80;48.30;;;;;;5075805;28;20075;-64
2023/03/12 06:07:23;;;;;;;2.10;0.90;;;19.70;48.10;;;;;;5093776;28;20385;-64
2023/03/12 06:09:48;;;;;;;1.42;0.82;;;19.80;48.20;;;;;;5075169;28;20052;-65
2023/03/12 06:12:14;;;;;;;1.63;0.90;;;19.80;48.20;;;;;;5075231;28;20063;-65
2023/03/12 06:14:40;;;;;;;1.95;0.85;;;19.80;48.20;;;;;;5093267;28;20046;-64
2023/03/12 06:17:05;;;;;;;2.63;0.88;;;19.80;48.10;;;;;;5074349;28;20492;-64
2023/03/12 06:19:31;;;;;;;2.65;1.00;;;19.80;48.10;;;;;;5074784;28;20048;-64
2023/03/12 06:21:56;;;;;;;3.50;0.93;;;19.80;48.10;;;;;;5093492;28;20081;-65
2023/03/12 06:24:22;;;;;;;2.22;0.90;;;19.80;48.10;;;;;;5092794;28;20040;-64
2023/03/12 06:26:47;;;;;;;2.10;0.90;;;19.80;48.10;;;;;;5093039;28;20028;-65
2023/03/12 06:29:13;;;;;;;2.65;0.85;;;19.80;48.10;;;;;;5092658;28;20075;-64
2023/03/12 06:31:40;;;;;;;1.92;0.90;;;19.90;48.20;;;;;;5074879;28;20039;-65
2023/03/12 06:34:07;;;;;;;1.98;0.93;;;19.90;48.10;;;;;;5093083;28;20518;-64
2023/03/12 06:36:32;;;;;;;2.30;1.13;;;19.90;48.10;;;;;;5092120;28;20074;-64
2023/03/12 06:38:58;;;;;;;2.13;1.02;;;19.90;48.00;;;;;;5093323;28;20076;-64
2023/03/12 06:41:24;;;;;;;2.17;0.90;;;19.90;48.00;;;;;;5092527;28;20040;-64
2023/03/12 06:43:49;;;;;;;1.88;0.82;;;19.90;48.00;;;;;;5074334;28;20043;-64
2023/03/12 06:46:16;;;;;;;2.08;0.95;;;19.90;48.00;;;;;;5092987;28;20040;-64
2023/03/12 06:48:42;;;;;;;2.80;0.90;;;19.90;48.00;;;;;;5074271;28;20044;-64
2023/03/12 06:51:09;;;;;;;1.83;0.90;;;19.90;48.00;;;;;;5092484;28;20074;-64
2023/03/12 06:53:35;;;;;;;2.85;1.00;;;19.90;48.00;;;;;;5074842;28;20044;-64
2023/03/12 06:56:00;;;;;;;2.08;0.85;;;19.90;47.90;;;;;;5092916;28;20044;-64
2023/03/12 06:58:26;;;;;;;1.85;0.85;;;19.90;47.90;;;;;;5091744;28;20040;-64
2023/03/12 07:00:53;;;;;;;1.50;0.80;;;19.90;47.90;;;;;;5092881;28;20040;-64
2023/03/12 07:03:18;;;;;;;2.72;1.10;;;20.00;47.90;;;;;;5093021;28;20097;-64
2023/03/12 07:05:47;;;;;;;2.47;1.00;;;19.90;47.90;;;;;;5092045;28;20044;-64
2023/03/12 07:08:13;;;;;;;1.80;1.02;;;20.00;47.90;;;;;;5074726;28;20050;-65
2023/03/12 07:10:39;;;;;;;2.58;1.05;;;20.00;48.00;;;;;;5092183;28;20043;-65
2023/03/12 07:13:04;;;;;;;4.32;0.90;;;20.00;47.90;;;;;;5091672;28;20044;-65
2023/03/12 07:15:30;;;;;;;3.03;1.23;;;20.00;48.00;;;;;;5074451;28;20064;-65
2023/03/12 07:17:59;;;;;;;2.65;0.90;;;20.00;48.00;;;;;;5092321;28;20407;-65
2023/03/12 07:20:25;;;;;;;2.78;0.98;;;20.00;48.00;;;;;;5091516;28;20044;-66
2023/03/12 07:22:50;;;;;;;3.22;0.90;;;20.00;48.00;;;;;;5092520;28;20040;-66
2023/03/12 07:25:16;;;;;;;2.22;0.70;;;20.00;48.10;;;;;;5092022;28;20502;-65
2023/03/12 07:27:41;;;;;;;2.30;0.90;;;20.00;48.10;;;;;;5092153;28;20083;-65
2023/03/12 07:30:08;;;;;;;2.95;1.08;;;20.00;48.10;;;;;;5092479;28;20040;-66
2023/03/12 07:32:35;;;;;;;1.50;1.00;;;20.00;48.20;;;;;;5073480;28;20040;-66
2023/03/12 07:35:02;;;;;;;3.63;1.50;;;20.00;48.30;;;;;;5092760;28;20123;-66
2023/03/12 07:37:27;;;;;;;4.80;0.98;;;20.00;48.30;;;;;;5091974;28;20056;-64
2023/03/12 07:39:53;;;;;;;5.70;1.30;;;20.00;48.30;;;;;;5091769;28;20044;-65
2023/03/12 07:42:19;;;;;;;4.05;0.98;;;20.10;48.60;;;;;;5092057;28;20036;-65
2023/03/12 07:44:44;;;;;;;6.65;1.00;;;20.10;48.70;;;;;;5080246;28;20487;-63
2023/03/12 07:47:10;;;;;;;3.33;1.00;;;20.10;48.80;;;;;;5112244;28;20657;-66
2023/03/12 07:49:36;;;;;;;6.88;1.02;;;20.10;48.90;;;;;;5112586;28;20032;-63
2023/03/12 07:52:01;;;;;;;1.85;1.02;;;20.10;49.00;;;;;;5113003;28;20122;-65
2023/03/12 07:54:29;;;;;;;2.97;1.02;;;20.10;49.10;;;;;;5086378;28;20125;-65
2023/03/12 07:56:56;;;;;;;3.15;1.00;;;20.10;49.90;;;;;;5091166;28;20028;-65
2023/03/12 07:59:22;;;;;;;5.30;1.00;;;20.10;49.20;;;;;;5092049;28;20040;-65
2023/03/12 08:01:48;;;;;;;3.42;1.00;;;20.20;49.40;;;;;;5091338;28;20043;-64
2023/03/12 08:04:13;;;;;;;3.30;1.23;;;20.20;49.50;;;;;;5095555;28;20032;-65
2023/03/12 08:06:41;;;;;;;1.70;0.90;;;20.20;49.60;;;;;;5095312;28;20036;-64
2023/03/12 08:09:07;;;;;;;2.92;0.82;;;20.20;49.60;;;;;;5076578;28;20097;-66
2023/03/12 08:11:33;;;;;;;2.50;1.13;;;20.20;49.70;;;;;;5095259;28;20574;-64
2023/03/12 08:13:59;;;;;;;3.78;1.08;;;20.20;49.70;;;;;;5077782;28;20122;-66
2023/03/12 08:16:24;;;;;;;2.95;1.20;;;20.20;49.70;;;;;;5094302;28;20384;-65
2023/03/12 08:18:50;;;;;;;4.63;1.05;;;20.20;49.80;;;;;;5095658;28;20121;-65
2023/03/12 08:21:15;;;;;;;4.22;1.10;;;20.30;49.80;;;;;;5095565;28;20036;-64
2023/03/12 08:23:41;;;;;;;1.40;0.70;;;20.20;49.70;;;;;;5094503;28;20036;-64
2023/03/12 08:26:07;;;;;;;3.00;1.20;;;20.30;49.60;;;;;;5094129;28;20036;-63
2023/03/12 08:28:32;;;;;;;5.60;1.27;;;20.30;49.60;;;;;;5094416;28;20032;-60
2023/03/12 08:30:58;;;;;;;2.53;0.88;;;20.20;49.60;;;;;;5092984;28;20135;-64
2023/03/12 08:33:24;;;;;;;3.42;1.00;;;20.20;49.70;;;;;;5094579;28;20039;-65
2023/03/12 08:35:49;;;;;;;3.85;1.30;;;20.20;49.70;;;;;;5094853;28;20495;-66
2023/03/12 08:38:15;;;;;;;4.80;1.10;;;20.20;49.70;;;;;;5095287;28;20051;-66
2023/03/12 08:40:41;;;;;;;3.67;1.10;;;20.20;49.80;;;;;;5114541;28;20036;-66
2023/03/12 08:43:06;;;;;;;2.33;1.02;;;20.20;49.80;;;;;;5114727;28;20047;-66
2023/03/12 08:45:34;;;;;;;3.67;1.00;;;20.20;49.80;;;;;;5115392;28;20406;-65
2023/03/12 08:48:04;;;;;;;2.17;1.00;;;20.20;49.80;;;;;;5115704;28;20054;-65
2023/03/12 08:50:30;;;;;;;2.33;1.10;;;20.20;49.80;;;;;;5114838;28;20100;-65
2023/03/12 08:52:57;;;;;;;2.05;1.00;;;20.20;49.80;;;;;;5116025;28;20128;-65
2023/03/12 08:55:22;;;;;;;4.75;1.10;;;20.20;49.80;;;;;;5115366;28;20498;-66
2023/03/12 08:57:48;;;;;;;4.75;0.90;;;20.20;49.90;;;;;;5114341;28;20039;-65
2023/03/12 09:00:15;;;;;;;2.92;1.10;;;20.20;49.90;;;;;;5095986;28;20130;-66
2023/03/12 09:02:43;;;;;;;2.03;1.00;;;20.20;49.90;;;;;;5094596;28;20044;-66
2023/03/12 09:05:08;;;;;;;;;;;20.20;49.90;;;;;;5076590;28;20040;-67
2023/03/12 09:07:34;;;;;;;2.60;1.42;;;20.20;50.00;;;;;;5076753;28;19927;-66
2023/03/12 09:09:59;;;;;;;3.47;1.00;;;20.20;49.90;;;;;;5076475;28;20541;-66
2023/03/12 09:12:25;;;;;;;3.92;1.10;;;20.20;50.00;;;;;;5093035;28;20044;-67
2023/03/12 09:14:51;;;;;;;2.67;1.13;;;20.20;50.00;;;;;;5095031;28;20040;-67
2023/03/12 09:17:17;;;;;;;2.25;0.95;;;20.20;50.00;;;;;;5094598;28;20043;-66
2023/03/12 09:19:42;;;;;;;4.50;1.20;;;20.20;50.00;;;;;;5093581;28;20052;-68
2023/03/12 09:22:11;;;;;;;2.88;0.98;;;20.20;50.00;;;;;;5076367;28;20042;-67
2023/03/12 09:24:36;;;;;;;1.85;0.80;;;20.20;50.00;;;;;;5086722;28;20041;-68
2023/03/12 09:27:03;;;;;;;3.42;1.17;;;20.20;50.10;;;;;;5084887;28;20048;-65
2023/03/12 09:29:29;;;;;;;2.08;0.90;;;20.20;50.10;;;;;;5075281;28;20467;-66
2023/03/12 09:31:55;;;;;;;3.15;0.95;;;20.20;50.00;;;;;;5075108;28;20399;-66
2023/03/12 09:34:21;;;;;;;2.00;0.82;;;20.20;50.00;;;;;;5093567;28;20036;-65
2023/03/12 09:36:46;;;;;;;2.92;0.88;;;20.10;49.90;;;;;;5075417;28;20047;-66
2023/03/12 09:39:12;;;;;;;3.45;0.90;;;20.10;49.90;;;;;;5093227;28;20036;-65
2023/03/12 09:41:38;;;;;;;3.55;0.90;;;20.10;49.90;;;;;;5093798;28;20644;-66
2023/03/12 09:44:26;;;;;;;1.65;0.80;;;20.10;49.80;;;;;;5059788;28;20051;-65
2023/03/12 09:47:07;;;;;;;4.03;1.15;;;20.10;49.80;;;;;;5075060;28;20044;-65
2023/03/12 09:49:58;;;;;;;2.78;1.00;;;20.10;49.80;;;;;;5043400;28;20079;-65
2023/03/12 09:52:31;;;;;;;2.45;0.80;;;20.10;49.70;;;;;;5092886;28;20063;-66
2023/03/12 09:55:07;;;;;;;3.03;0.95;;;20.10;49.80;;;;;;5059655;28;20072;-66
2023/03/12 09:57:33;;;;;;;8.45;1.20;;;20.10;49.70;;;;;;5075323;28;20404;-66
2023/03/12 09:59:58;;;;;;;1.90;1.00;;;20.10;49.80;;;;;;5059088;28;20043;-66
2023/03/12 10:02:52;;;;;;;2.83;0.90;;;20.10;49.70;;;;;;5074835;28;20046;-66
2023/03/12 10:05:52;;;;;;;4.20;1.23;;;20.10;49.70;;;;;;5075241;28;20044;-66
2023/03/12 10:08:40;;;;;;;4.40;1.13;;;20.10;49.60;;;;;;5042989;28;20073;-65
2023/03/12 10:11:44;;;;;;;6.63;1.30;;;20.10;49.60;;;;;;5093232;28;20044;-64
2023/03/12 10:14:46;;;;;;;5.25;1.30;;;20.10;49.80;;;;;;5009844;28;20544;-66
2023/03/12 10:17:17;;;;;;;3.42;1.10;;;20.10;50.20;;;;;;5091167;28;20116;-66
2023/03/12 10:20:01;;;;;;;4.35;1.27;;;20.10;50.10;;;;;;5074942;28;20055;-66
2023/03/12 10:22:45;;;;;;;5.50;1.35;;;20.10;50.20;;;;;;5091900;28;20047;-67
2023/03/12 10:25:26;;;;;;;2.33;0.93;;;20.10;50.30;;;;;;5093352;28;20104;-67
2023/03/12 10:27:52;;;;;;;4.78;1.15;;;20.10;50.30;;;;;;5075247;28;20515;-67
2023/03/12 10:30:24;;;;;;;3.10;1.10;;;20.10;50.30;;;;;;5074480;28;20043;-70
2023/03/12 10:32:57;;;;;;;2.70;1.10;;;20.10;50.50;;;;;;5075754;28;20040;-68
2023/03/12 10:35:24;;;;;;;4.10;1.20;;;20.10;50.50;;;;;;5041623;28;20505;-65
2023/03/12 10:38:03;;;;;;;6.68;1.30;;;20.10;50.50;;;;;;5074559;28;20127;-67
2023/03/12 10:40:33;;;;;;;2.78;1.10;;;20.10;50.60;;;;;;5074913;28;20467;-67
2023/03/12 10:42:59;;;;;;;3.45;1.05;;;20.10;50.50;;;;;;5092770;28;20109;-67
2023/03/12 10:45:48;;;;;;;3.45;1.23;;;20.10;50.50;;;;;;5074707;28;20467;-67
2023/03/12 10:48:22;;;;;;;3.22;1.20;;;20.10;50.60;;;;;;5092671;28;20505;-66
2023/03/12 10:51:00;;;;;;;3.08;1.08;;;20.10;50.50;;;;;;5092198;28;20040;-69
2023/03/12 10:53:27;;;;;;;3.20;1.02;;;20.10;50.60;;;;;;5092699;28;20119;-67
2023/03/12 10:56:05;;;;;;;4.38;1.00;;;20.10;50.60;;;;;;5074712;28;20090;-68
2023/03/12 10:58:41;;;;;;;3.17;1.02;;;20.10;50.70;;;;;;5073030;28;20044;-65
2023/03/12 11:01:21;;;;;;;2.53;1.08;;;20.10;50.50;;;;;;5073057;28;20044;-67
2023/03/12 11:03:48;;;;;;;2.15;1.15;;;20.10;50.40;;;;;;5074517;28;20093;-65
2023/03/12 11:06:26;;;;;;;3.05;1.13;;;20.10;50.60;;;;;;5092021;28;20097;-66
2023/03/12 11:09:08;;;;;;;5.00;1.93;;;20.10;50.60;;;;;;5074175;28;20157;-66
2023/03/12 11:11:34;;;;;;;4.10;1.10;;;20.10;50.70;;;;;;5069996;28;20052;-65
2023/03/12 11:14:07;;;;;;;5.70;1.63;;;20.10;50.70;;;;;;5087793;28;20043;-69
2023/03/12 11:16:32;;;;;;;2.60;1.10;;;20.10;50.80;;;;;;5083145;28;20062;-67
2023/03/12 11:19:02;;;;;;;3.03;1.00;;;20.10;50.70;;;;;;5041481;28;20503;-66
2023/03/12 11:21:29;;;;;;;2.97;1.13;;;20.10;50.80;;;;;;5071096;28;20074;-65
2023/03/12 11:23:57;;;;;;;4.30;1.33;;;20.10;50.80;;;;;;5072110;28;20101;-65
2023/03/12 11:26:24;;;;;;;3.75;1.05;;;20.10;50.80;;;;;;5078738;28;20395;-70
2023/03/12 11:28:54;;;;;;;2.97;1.13;;;20.10;50.80;;;;;;5090155;28;20606;-66
2023/03/12 11:31:24;;;;;;;4.85;1.25;;;20.10;50.80;;;;;;5073721;28;20040;-67
2023/03/12 11:33:51;;;;;;;3.13;1.30;;;20.10;50.80;;;;;;5041741;28;20483;-67
2023/03/12 11:36:24;;;;;;;3.88;1.15;;;20.10;50.80;;;;;;5077993;28;20035;-68
2023/03/12 11:38:57;;;;;;;6.07;1.30;;;20.10;50.90;;;;;;5077414;28;20518;-68
2023/03/12 11:41:30;;;;;;;2.88;1.30;;;20.10;50.90;;;;;;5078254;28;20119;-68
2023/03/12 11:44:02;;;;;;;4.30;1.60;;;20.10;51.00;;;;;;5061790;28;20054;-67
2023/03/12 11:46:39;;;;;;;4.90;1.13;;;20.10;51.20;;;;;;5076264;28;20123;-67
2023/03/12 11:49:11;;;;;;;4.90;1.30;;;20.10;51.30;;;;;;5095615;28;20040;-67
2023/03/12 11:51:52;;;;;;;5.03;1.52;;;20.10;51.30;;;;;;5095235;28;20045;-68
2023/03/12 11:54:45;;;;;;;4.22;1.55;;;20.10;51.40;;;;;;5077077;28;20047;-66
2023/03/12 11:57:17;;;;;;;3.30;1.50;;;20.10;51.40;;;;;;5095357;28;20484;-66
2023/03/12 12:00:10;;;;;;;4.45;1.30;;;20.00;51.30;;;;;;5060998;28;20048;-66
2023/03/12 12:03:07;;;;;;;4.22;1.20;;;20.10;51.30;;;;;;5095940;28;20044;-65
2023/03/12 12:05:53;;;;;;;4.95;1.40;;;20.10;51.30;;;;;;5071166;28;20108;-66
2023/03/12 12:08:54;;;;;;;3.83;1.40;;;20.10;51.30;;;;;;5078451;28;20068;-67
2023/03/12 12:11:26;;;;;;;3.08;1.33;;;20.00;51.20;;;;;;5095103;28;20121;-66
2023/03/12 12:14:22;;;;;;;3.85;1.20;;;20.00;51.20;;;;;;5077277;28;20040;-66
2023/03/12 12:17:10;;;;;;;3.67;1.15;;;20.10;51.20;;;;;;5050390;28;20059;-65
2023/03/12 12:19:55;;;;;;;;;;;20.00;51.20;;;;;;5077352;28;20048;-65
2023/03/12 12:22:32;;;;;;;5.10;1.70;;;20.00;51.20;;;;;;5077032;28;20410;-65
2023/03/12 12:25:20;;;;;;;5.50;1.20;;;20.00;51.10;;;;;;5095432;28;20040;-65
2023/03/12 12:28:33;;;;;;;4.75;1.23;;;20.00;51.00;;;;;;5076182;28;20318;-68
2023/03/12 12:31:22;;;;;;;5.18;1.45;;;20.00;51.10;;;;;;5058227;28;20163;-64
2023/03/12 12:34:06;;;;;;;4.40;1.45;;;20.00;51.30;;;;;;5094416;28;20042;-65
2023/03/12 12:36:33;;;;;;;3.15;1.65;;;20.00;51.30;;;;;;5075911;28;20052;-65
2023/03/12 12:39:14;;;;;;;6.25;1.13;;;20.00;51.40;;;;;;5076556;28;20064;-65
2023/03/12 12:41:43;;;;;;;3.78;1.35;;;20.00;51.60;;;;;;5076429;28;20132;-66
2023/03/12 12:44:14;;;;;;;3.53;1.38;;;20.00;51.60;;;;;;5059799;28;20050;-66
2023/03/12 12:46:42;;;;;;;3.58;1.10;;;20.00;51.70;;;;;;5059114;28;20127;-64
2023/03/12 12:49:29;;;;;;;4.70;1.45;;;20.00;51.80;;;;;;5071749;28;20046;-65
2023/03/12 12:51:57;;;;;;;3.43;1.30;;;20.00;51.80;;;;;;5073585;28;20388;-65
2023/03/12 12:54:32;;;;;;;4.50;1.33;;;20.00;51.90;;;;;;5073188;28;20302;-65
2023/03/12 12:57:10;;;;;;;3.22;1.50;;;20.00;51.90;;;;;;5075861;28;20048;-65